Aérodrome :
LOGIN :

S'inscrire | Disclaimer

   EN    FR    IT 

 










Légende :    VFR   VFR Marginal   IFR   IFR Intensif   IFR Très Intensif
Visi : 
Plafond : 
>= 8 km
>= 3000ft
5 à 8 km
1000 à 3000 ft
1500m à 5 km
500 à 1000 ft
800 à 1500m
200 à 500 ft
< 800m
< 200 ft
Symboles :   Orages  Brouillard  Fortes neiges  Fortes précipitations  Vent > 20 kt
SIGMETs :   Divers  Orages  Givrage  Turbulence  Onde Orograph.  Cendres Volcan.







- Altitude de l'aérodrome : 1416 ft
- Code IATA : ZRH


LSZH - Zurich

DERNIER METAR :
  • 140750Z 27009KT 9999 FEW015 SCT028 BKN054 02/M01 Q1006 R88/29//// TEMPO 24015G30KT 3500 -SHRASN

METARs EXPIRÉS :
  • 140720Z 27010KT 9999 FEW010 SCT014 BKN065 01/M00 Q1006 RERASN R88/29//// NOSIG
  • 140650Z 27013KT 4800 VCTS SHRASN SCT005 FEW007CB BKN013 01/00 Q1006 R88/29 TEMPO NSW
  • 140620Z 28019G30KT 4500 SHSN SCT005 FEW007CB BKN013 01/M00 Q1005 R88/29 TEMPO 2500 TSSNGS
  • 140550Z 26020G34KT 220V300 9999 SHRA FEW023 FEW045CB BKN060 07/02 Q1003 TEMPO 4500 TSRASN
  • 140520Z 24022G37KT 9999 FEW025 FEW035CB SCT070 08/02 Q1002 TEMPO TSRA

TAF AMD TAF LSZH
Valide du 14 à 06h jusqu'au 15 à 12h UTC


140614Z 1406/1512 24015KT 9999 FEW020 BKN030 TX08/1414Z TN04/1423Z TN03/1506Z
TEMPO 1406/1409 24025G35KT SHRA
PROB30
TEMPO 1406/1408 4000 TSRASN BKN030CB
PROB30
TEMPO 1406/1408 1500 SHSN BKN012
BECMG 1416/1419 24005KT
TEMPO 1415/1506 SHRA
PROB40
TEMPO 1500/1506 26015G25KT4500 SHSNRA BKN014
ATIS : +41 43 816 2295 (DEP) +41 43 816 2294 (ARR)
Pas de NOTAMs connus pour ce terrain.
1 SIGMET publié pour la FIR Switzerland (LSAS) :
 
Turbulence forte
LSAS SIGMET 3 VALID 140700/140800 LSZH
LSAS SWITZERLAND FIR SEV TURB FCST N OF LINE N4601 E00551 - N4715 E00958 SFC/FL150 STNR WKN=



MET'MAP, la Météo Aéronautique d'un coup d'oeil ! - Copyright ORBIFLY Décembre 2007 - Disclaimer

ORBIFLY MET'MAP TEAM :

Programmation & Développement : Alexandra Zaïnal
Conception & Développement : Baudouin d'Aumeries
Co-Programmation & Développement : Marc-Olivier Méhu
Soutien technique & logistique : Manuel Goepfert

Contact : metmap@orbifly.com




SOURCES & CREDITS :

   NOAA